Wixom, Michigan
Current Conditions -  °F | °C
As of 7:53 PM on Sunday 21 Dec 2014 (Local Time) from KPTK Reporting Station
Overcast Overcast  
Wind Chill: 22°   Ceiling: 5000
Heat Index: 30°   Visibility: 8mi
Dew Point: 22°   Wind: 9mph
Humidity: 72%   Direction: 140°SE
Pressure: 30.2"   Gusts: NA
Location:  42.52°N, 83.53°W
Report Text: KPTK 220053Z 14008KT 8SM OVC050 M01/M06 A3020 RMK AO2 SLP238 T10111056
Loading
Personal Weather Stations






























Interactive Weather Map New forecast layout! Learn more

10-Day Weather Forecast

Advertisements
Track Severe Weather on mobile